Time;durP1;ratioP1;P1;durP2;ratioP2;P2;SDS_P1;SDS_P2;PMS_P1;PMS_P2;Temp;Humidity;BMP_temperature;BMP_pressure;BME280_temperature;BME280_humidity;BME280_pressure;Samples;Min_cycle;Max_cycle;Signal;HPM_P1;HPM_P2
2023/03/11 00:00:17;;;;;;;4.88;1.00;;;;;;;5.19;46.21;100864.97;5009993;28;20034;-41
2023/03/11 00:02:44;;;;;;;5.10;0.80;;;;;;;5.27;44.89;100855.78;5001925;28;20134;-40
2023/03/11 00:05:15;;;;;;;3.58;0.93;;;;;;;5.02;44.38;100860.91;5003728;28;20443;-40
2023/03/11 00:07:41;;;;;;;4.72;0.80;;;;;;;5.27;43.53;100860.94;5001501;28;20034;-40
2023/03/11 00:10:08;;;;;;;6.60;0.90;;;;;;;5.14;42.93;100863.94;5007539;28;20072;-41
2023/03/11 00:12:33;;;;;;;4.72;0.80;;;;;;;5.06;43.38;100868.81;5006102;28;20041;-43
2023/03/11 00:14:58;;;;;;;4.45;0.85;;;;;;;5.04;43.06;100874.78;4999225;28;20026;-40
2023/03/11 00:17:24;;;;;;;4.72;1.00;;;;;;;5.18;43.17;100878.75;5003012;28;20403;-42
2023/03/11 00:19:49;;;;;;;1.77;0.60;;;;;;;4.77;43.44;100869.50;4998805;28;20030;-42
2023/03/11 00:22:14;;;;;;;4.05;0.75;;;;;;;4.96;43.32;100876.22;5002571;28;20029;-40
2023/03/11 00:24:39;;;;;;;4.50;0.80;;;;;;;5.16;43.46;100883.84;4998765;28;20410;-40
2023/03/11 00:27:05;;;;;;;3.33;0.98;;;;;;;5.23;43.91;100890.13;5002069;28;20176;-42
2023/03/11 00:29:31;;;;;;;2.50;0.80;;;;;;;5.23;44.24;100897.88;5002822;28;20034;-45
2023/03/11 00:31:56;;;;;;;5.78;0.82;;;;;;;5.13;44.20;100904.41;4998092;28;20041;-39
2023/03/11 00:34:21;;;;;;;6.85;1.00;;;;;;;5.12;45.18;100910.38;5001589;28;20045;-44
2023/03/11 00:36:47;;;;;;;4.18;1.10;;;;;;;4.96;45.19;100909.78;4998307;28;20045;-49
2023/03/11 00:39:12;;;;;;;2.70;0.70;;;;;;;4.80;46.38;100908.38;5002225;28;20034;-43
2023/03/11 00:41:37;;;;;;;5.75;0.88;;;;;;;4.95;45.85;100906.31;4998487;28;20126;-43
2023/03/11 00:44:03;;;;;;;5.07;0.90;;;;;;;5.15;46.29;100915.69;5002789;28;20561;-42
2023/03/11 00:46:29;;;;;;;3.22;0.90;;;;;;;5.29;46.33;100911.00;5002390;28;20548;-39
2023/03/11 00:48:55;;;;;;;5.30;1.10;;;;;;;5.16;46.80;100909.69;5002234;28;20056;-39
2023/03/11 00:51:20;;;;;;;4.13;1.15;;;;;;;5.24;46.57;100910.84;5005093;28;20026;-41
2023/03/11 00:53:46;;;;;;;5.45;1.00;;;;;;;5.13;47.42;100911.28;5001344;28;20034;-42
2023/03/11 00:56:13;;;;;;;4.30;1.20;;;;;;;5.08;47.18;100915.41;5002346;28;20127;-40
2023/03/11 00:58:40;;;;;;;4.28;0.98;;;;;;;4.90;47.82;100913.91;4999273;28;20034;-40
2023/03/11 01:01:07;;;;;;;6.32;1.00;;;;;;;4.85;47.60;100924.91;5002440;28;20048;-40
2023/03/11 01:03:32;;;;;;;5.20;1.35;;;;;;;4.76;48.54;100915.09;5002128;28;20040;-39
2023/03/11 01:05:58;;;;;;;2.80;0.93;;;;;;;4.94;48.43;100924.38;5002126;28;20034;-40
2023/03/11 01:08:23;;;;;;;2.92;0.80;;;;;;;5.16;47.76;100917.44;5006662;28;20049;-40
2023/03/11 01:10:48;;;;;;;2.97;0.80;;;;;;;5.14;48.22;100925.97;4997931;28;20084;-40
2023/03/11 01:13:13;;;;;;;3.78;0.80;;;;;;;5.01;48.30;100921.16;5001951;28;20124;-40
2023/03/11 01:15:39;;;;;;;2.30;0.80;;;;;;;5.07;48.24;100924.84;4998834;28;20481;-40
2023/03/11 01:18:05;;;;;;;4.13;1.27;;;;;;;5.20;48.17;100927.06;5003966;28;20037;-41
2023/03/11 01:20:30;;;;;;;3.25;0.98;;;;;;;5.05;48.38;100931.69;5005827;28;20034;-41
2023/03/11 01:22:56;;;;;;;6.57;0.90;;;;;;;5.13;48.75;100934.53;5004424;28;20036;-40
2023/03/11 01:25:23;;;;;;;4.38;1.15;;;;;;;5.01;48.45;100939.25;5008286;28;20454;-47
2023/03/11 01:27:48;;;;;;;5.43;0.98;;;;;;;5.01;48.51;100931.50;5005584;28;20414;-41
2023/03/11 01:30:18;;;;;;;4.03;0.90;;;;;;;4.95;49.05;100936.44;5005554;28;20514;-43
2023/03/11 01:32:44;;;;;;;5.80;1.00;;;;;;;5.18;48.18;100928.72;4997570;28;20033;-41
2023/03/11 01:35:15;;;;;;;4.78;1.00;;;;;;;5.21;48.29;100931.41;5002116;28;20393;-43
2023/03/11 01:37:40;;;;;;;4.78;1.00;;;;;;;5.16;48.40;100929.50;5001110;28;20059;-40
2023/03/11 01:40:11;;;;;;;4.28;0.75;;;;;;;5.13;48.87;100937.13;5005830;28;20112;-41
2023/03/11 01:42:37;;;;;;;6.63;1.10;;;;;;;4.91;48.77;100932.88;5001721;28;20033;-40
2023/03/11 01:45:25;;;;;;;2.60;0.90;;;;;;;4.91;48.50;100943.22;5005666;28;20489;-42
2023/03/11 01:47:51;;;;;;;5.05;0.73;;;;;;;5.01;47.75;100940.13;5001773;28;20116;-41
2023/03/11 01:50:16;;;;;;;4.72;0.90;;;;;;;4.97;46.82;100947.72;5005537;28;20061;-42
2023/03/11 01:52:43;;;;;;;2.88;0.90;;;;;;;4.93;47.44;100940.69;5000956;28;20030;-41
2023/03/11 01:55:09;;;;;;;6.60;1.13;;;;;;;5.28;47.51;100941.16;5005278;28;20037;-41
2023/03/11 01:57:37;;;;;;;3.15;0.90;;;;;;;5.23;49.12;100945.28;5003261;28;20030;-51
2023/03/11 02:00:06;;;;;;;4.32;0.90;;;;;;;5.12;49.32;100949.16;5004654;28;20049;-41
2023/03/11 02:02:36;;;;;;;4.95;0.90;;;;;;;4.80;50.51;100945.41;5004990;28;20034;-42
2023/03/11 02:05:03;;;;;;;4.93;1.30;;;;;;;4.77;50.00;100950.44;5002033;28;20496;-41
2023/03/11 02:07:29;;;;;;;7.22;1.17;;;;;;;4.88;50.53;100948.25;5005611;28;20037;-41
2023/03/11 02:09:54;;;;;;;4.22;1.10;;;;;;;4.88;50.73;100953.41;5002949;28;20038;-41
2023/03/11 02:12:19;;;;;;;3.40;1.00;;;;;;;4.81;50.65;100954.03;5005827;28;20033;-43
2023/03/11 02:14:49;;;;;;;12.02;1.35;;;;;;;4.75;51.54;100953.81;5002311;28;20041;-42
2023/03/11 02:17:15;;;;;;;6.25;1.13;;;;;;;4.69;51.49;100951.00;5005871;28;20164;-42
2023/03/11 02:19:58;;;;;;;3.30;1.08;;;;;;;4.61;52.17;100952.41;5002291;28;20467;-42
2023/03/11 02:22:27;;;;;;;6.13;1.00;;;;;;;4.54;53.06;100955.56;5006073;28;20048;-43
2023/03/11 02:25:01;;;;;;;3.70;1.10;;;;;;;4.47;53.01;100952.72;5001587;28;20037;-41
2023/03/11 02:27:27;;;;;;;3.97;0.82;;;;;;;4.44;53.16;100956.91;5005117;28;20034;-40
2023/03/11 02:29:55;;;;;;;4.47;0.98;;;;;;;4.38;54.33;100954.09;5002675;28;20410;-41
2023/03/11 02:32:21;;;;;;;2.25;0.90;;;;;;;4.38;54.29;100954.09;5007436;28;20048;-42
2023/03/11 02:34:47;;;;;;;3.88;0.90;;;;;;;4.40;54.92;100950.72;5003786;28;20045;-41
2023/03/11 02:37:14;;;;;;;5.97;0.95;;;;;;;4.37;54.64;100950.63;5007354;28;20073;-43
2023/03/11 02:39:42;;;;;;;3.75;1.10;;;;;;;4.37;55.23;100948.03;5002130;28;20032;-41
2023/03/11 02:42:16;;;;;;;4.75;1.20;;;;;;;4.30;55.32;100947.72;5006580;28;20103;-40
2023/03/11 02:44:44;;;;;;;3.80;1.30;;;;;;;4.25;56.23;100946.69;5003299;28;20125;-40
2023/03/11 02:47:10;;;;;;;4.45;1.00;;;;;;;4.20;56.68;100953.38;5010033;28;20201;-43
2023/03/11 02:49:35;;;;;;;2.63;0.98;;;;;;;4.15;57.33;100953.16;5007284;28;20054;-44
2023/03/11 02:52:01;;;;;;;3.63;1.25;;;;;;;4.16;56.76;100951.44;5010442;28;20050;-42
2023/03/11 02:54:26;;;;;;;4.20;1.02;;;;;;;4.17;56.47;100954.09;5010041;28;20033;-39
2023/03/11 02:56:51;;;;;;;4.22;1.30;;;;;;;4.22;57.11;100957.75;5004124;28;20030;-42
2023/03/11 02:59:17;;;;;;;3.38;1.10;;;;;;;4.26;56.67;100958.78;5008199;28;20049;-42
2023/03/11 03:01:43;;;;;;;2.20;0.90;;;;;;;4.19;57.10;100965.38;5001312;28;20036;-42
2023/03/11 03:04:08;;;;;;;4.65;1.20;;;;;;;4.11;56.81;100966.75;5002518;28;20029;-40
2023/03/11 03:06:33;;;;;;;2.42;0.90;;;;;;;4.02;57.21;100975.03;5004472;28;20098;-41
2023/03/11 03:08:59;;;;;;;2.85;0.90;;;;;;;3.92;58.10;100969.41;5001207;28;20113;-41
2023/03/11 03:11:24;;;;;;;5.22;1.35;;;;;;;3.85;57.96;100985.44;5003888;28;20030;-43
2023/03/11 03:13:49;;;;;;;2.20;1.00;;;;;;;3.77;57.70;100987.72;5000377;28;20088;-42
2023/03/11 03:16:15;;;;;;;6.15;1.10;;;;;;;3.70;58.01;100984.81;5004339;28;20033;-41
2023/03/11 03:18:40;;;;;;;4.68;0.95;;;;;;;3.62;58.35;100985.34;5001639;28;20034;-41
2023/03/11 03:21:06;;;;;;;2.65;1.02;;;;;;;3.55;59.09;100991.06;5007424;28;20088;-41
2023/03/11 03:23:34;;;;;;;5.90;1.10;;;;;;;3.54;59.50;100989.28;5007259;28;20081;-41
2023/03/11 03:26:00;;;;;;;3.40;1.15;;;;;;;3.46;59.70;100993.25;5003951;28;20030;-42
2023/03/11 03:28:25;;;;;;;4.53;1.10;;;;;;;3.39;59.62;101006.69;5007177;28;20087;-42
2023/03/11 03:30:51;;;;;;;6.35;1.25;;;;;;;3.38;59.86;101007.47;5002821;28;20030;-42
2023/03/11 03:33:16;;;;;;;3.97;1.05;;;;;;;3.34;59.65;101008.16;5006471;28;20030;-41
2023/03/11 03:35:43;;;;;;;3.90;0.85;;;;;;;3.35;59.87;101014.22;5004072;28;20044;-37
2023/03/11 03:38:09;;;;;;;2.83;1.17;;;;;;;3.36;60.13;101013.38;5009902;28;20109;-40
2023/03/11 03:40:35;;;;;;;2.92;1.00;;;;;;;3.32;60.71;101014.06;5004813;28;20074;-42
2023/03/11 03:43:00;;;;;;;5.47;1.08;;;;;;;3.27;61.20;101024.16;5006561;28;20089;-41
2023/03/11 03:45:26;;;;;;;4.45;1.00;;;;;;;3.23;60.99;101019.69;5007522;28;20052;-40
2023/03/11 03:47:51;;;;;;;4.55;1.08;;;;;;;3.21;60.72;101021.31;5006065;28;20045;-40
2023/03/11 03:50:16;;;;;;;2.65;1.10;;;;;;;3.18;61.60;101024.63;5007055;28;20033;-41
2023/03/11 03:52:42;;;;;;;2.28;0.90;;;;;;;3.17;61.68;101030.59;5000228;28;20061;-41
2023/03/11 03:55:08;;;;;;;4.28;1.13;;;;;;;3.16;61.59;101030.53;5005074;28;20558;-41
2023/03/11 03:57:33;;;;;;;5.60;1.20;;;;;;;3.13;61.78;101036.41;5008354;28;20036;-40
2023/03/11 03:59:58;;;;;;;4.13;1.10;;;;;;;3.12;61.68;101037.22;5004352;28;20041;-42
2023/03/11 04:02:24;;;;;;;6.65;1.67;;;;;;;3.15;61.50;101032.22;5008022;28;20100;-41
2023/03/11 04:04:49;;;;;;;3.58;0.85;;;;;;;3.14;62.36;101032.16;5004767;28;20142;-41
2023/03/11 04:07:14;;;;;;;4.47;1.23;;;;;;;3.10;61.74;101032.84;5007781;28;20040;-40
2023/03/11 04:09:42;;;;;;;4.53;1.20;;;;;;;3.09;62.16;101031.06;5004434;28;20065;-40
2023/03/11 04:12:13;;;;;;;3.95;1.05;;;;;;;3.13;62.14;101022.66;5008278;28;20053;-40
2023/03/11 04:14:38;;;;;;;4.00;1.10;;;;;;;3.16;62.65;101025.38;5003616;28;20034;-40
2023/03/11 04:17:03;;;;;;;3.08;1.20;;;;;;;3.14;63.13;101027.00;5008156;28;20034;-42
2023/03/11 04:19:29;;;;;;;3.17;1.00;;;;;;;3.13;62.58;101031.25;5007597;28;20121;-42
2023/03/11 04:21:54;;;;;;;3.00;1.10;;;;;;;3.13;62.54;101027.81;5007087;28;20480;-42
2023/03/11 04:24:19;;;;;;;2.63;0.90;;;;;;;3.11;62.44;101032.88;5011371;28;20034;-40
2023/03/11 04:26:45;;;;;;;2.88;1.10;;;;;;;3.09;62.54;101028.50;5006648;28;20045;-42
2023/03/11 04:29:10;;;;;;;4.13;1.27;;;;;;;3.07;62.63;101028.41;5006785;28;20492;-40
2023/03/11 04:31:35;;;;;;;6.15;1.27;;;;;;;3.08;62.51;101032.75;5001625;28;20041;-46
2023/03/11 04:34:01;;;;;;;4.55;1.20;;;;;;;3.07;63.10;101030.97;5005089;28;20452;-40
2023/03/11 04:36:26;;;;;;;3.40;1.10;;;;;;;3.03;62.67;101034.25;5006160;28;20124;-41
2023/03/11 04:38:51;;;;;;;2.67;0.90;;;;;;;3.01;62.41;101040.13;5000669;28;20076;-38
2023/03/11 04:41:17;;;;;;;2.97;1.00;;;;;;;3.00;62.21;101049.53;5004691;28;20559;-40
2023/03/11 04:43:42;;;;;;;4.53;1.10;;;;;;;2.98;62.54;101050.31;4999442;28;20041;-40
2023/03/11 04:46:07;;;;;;;3.85;1.13;;;;;;;2.97;63.02;101052.00;5002977;28;20064;-40
2023/03/11 04:48:33;;;;;;;3.95;1.00;;;;;;;2.93;63.00;101046.63;5002567;28;20034;-42
2023/03/11 04:50:58;;;;;;;5.65;1.10;;;;;;;2.92;62.96;101045.75;4998772;28;20124;-39
2023/03/11 04:53:23;;;;;;;3.65;1.10;;;;;;;2.90;62.72;101052.50;5002186;28;20049;-41
2023/03/11 04:55:49;;;;;;;2.00;1.10;;;;;;;2.83;63.25;101056.50;4999639;28;20049;-42
2023/03/11 04:58:14;;;;;;;2.83;1.00;;;;;;;2.78;63.12;101050.25;5002685;28;20125;-43
2023/03/11 05:00:40;;;;;;;3.72;1.10;;;;;;;2.71;63.74;101055.03;4999288;28;20037;-40
2023/03/11 05:03:05;;;;;;;4.53;1.30;;;;;;;2.80;63.54;101060.63;5002750;28;20514;-41
2023/03/11 05:05:30;;;;;;;2.85;1.30;;;;;;;2.79;62.92;101058.84;5003156;28;20049;-39
2023/03/11 05:07:56;;;;;;;2.30;1.00;;;;;;;2.86;63.70;101066.06;4999105;28;20072;-45
2023/03/11 05:10:22;;;;;;;6.68;1.23;;;;;;;2.80;63.69;101066.66;5003373;28;20036;-43
2023/03/11 05:12:48;;;;;;;2.83;1.10;;;;;;;2.74;63.32;101063.78;5000934;28;20496;-42
2023/03/11 05:15:14;;;;;;;2.28;1.20;;;;;;;2.67;63.12;101071.13;5003999;28;20388;-40
2023/03/11 05:17:39;;;;;;;2.08;1.05;;;;;;;2.63;63.75;101076.94;5000671;28;20029;-40
2023/03/11 05:20:06;;;;;;;1.70;1.00;;;;;;;2.60;63.48;101071.66;5007335;28;20488;-40
2023/03/11 05:22:33;;;;;;;4.18;1.20;;;;;;;2.57;63.54;101072.38;5009796;28;20038;-40
2023/03/11 05:24:58;;;;;;;2.80;0.90;;;;;;;2.58;63.57;101070.69;5005465;28;20041;-40
2023/03/11 05:27:23;;;;;;;3.78;1.30;;;;;;;2.58;63.36;101080.97;5008258;28;20033;-41
2023/03/11 05:29:49;;;;;;;2.47;1.00;;;;;;;2.50;63.98;101069.44;5004648;28;20033;-40
2023/03/11 05:32:14;;;;;;;4.70;1.30;;;;;;;2.48;64.08;101068.47;5007091;28;20026;-40
2023/03/11 05:34:40;;;;;;;3.20;1.20;;;;;;;2.41;63.83;101069.88;5004146;28;20499;-40
2023/03/11 05:37:06;;;;;;;4.65;1.30;;;;;;;2.36;63.72;101073.91;5007646;28;20034;-42
2023/03/11 05:39:32;;;;;;;3.75;1.20;;;;;;;2.33;63.84;101076.31;5006552;28;20478;-40
2023/03/11 05:41:57;;;;;;;2.38;1.30;;;;;;;2.31;63.56;101077.97;5001487;28;20121;-40
2023/03/11 05:44:23;;;;;;;3.75;1.05;;;;;;;2.31;64.67;101083.09;5005655;28;20026;-40
2023/03/11 05:46:48;;;;;;;2.55;1.13;;;;;;;2.29;64.78;101089.84;5001997;28;20516;-41
2023/03/11 05:49:13;;;;;;;2.70;1.05;;;;;;;2.26;64.38;101090.56;5005647;28;20080;-40
2023/03/11 05:51:39;;;;;;;4.45;1.23;;;;;;;2.26;64.45;101089.69;5002014;28;20030;-40
2023/03/11 05:54:10;;;;;;;2.97;1.05;;;;;;;2.26;64.83;101092.25;5005544;28;20449;-41
2023/03/11 05:56:36;;;;;;;2.20;1.00;;;;;;;2.28;64.15;101090.66;5001619;28;20105;-42
2023/03/11 05:59:01;;;;;;;4.75;2.50;;;;;;;2.26;64.77;101095.72;5005588;28;20121;-41
2023/03/11 06:01:27;;;;;;;13.00;6.72;;;;;;;2.29;64.97;101101.03;5005186;28;20061;-40
2023/03/11 06:03:52;;;;;;;9.90;4.60;;;;;;;2.34;64.17;101098.66;5001027;28;20424;-41
2023/03/11 06:06:17;;;;;;;6.05;3.42;;;;;;;2.35;64.58;101109.06;5003546;28;20555;-40
2023/03/11 06:08:48;;;;;;;6.65;3.40;;;;;;;2.36;65.04;101107.38;5001439;28;20030;-40
2023/03/11 06:11:13;;;;;;;24.10;11.98;;;;;;;2.37;64.79;101112.59;5005239;28;20036;-42
2023/03/11 06:13:39;;;;;;;22.25;12.75;;;;;;;2.39;64.94;101110.06;5001751;28;20034;-41
2023/03/11 06:16:05;;;;;;;18.75;9.50;;;;;;;2.39;64.71;101115.22;5007530;28;20057;-41
2023/03/11 06:18:30;;;;;;;20.90;10.23;;;;;;;2.39;65.55;101112.66;5010015;28;20064;-42
2023/03/11 06:21:00;;;;;;;14.70;6.78;;;;;;;2.46;64.57;101117.28;5005307;28;20033;-42
2023/03/11 06:23:27;;;;;;;13.30;4.32;;;;;;;2.44;64.86;101119.78;5004437;28;20111;-40
2023/03/11 06:25:59;;;;;;;10.32;4.53;;;;;;;2.48;65.00;101128.56;5001035;28;20041;-41
2023/03/11 06:28:25;;;;;;;6.20;2.35;;;;;;;2.56;64.83;101127.22;5004374;28;20424;-40
2023/03/11 06:30:51;;;;;;;6.80;2.15;;;;;;;2.59;65.33;101131.66;4999190;28;20065;-39
2023/03/11 06:33:16;;;;;;;5.80;2.58;;;;;;;2.62;65.15;101122.41;5004273;28;20054;-40
2023/03/11 06:35:42;;;;;;;7.25;2.10;;;;;;;2.66;65.27;101132.03;5000706;28;20506;-39
2023/03/11 06:38:07;;;;;;;6.22;1.80;;;;;;;2.69;66.26;101132.16;5004997;28;20044;-42
2023/03/11 06:40:33;;;;;;;4.65;1.60;;;;;;;2.84;65.88;101137.19;5005494;28;20034;-41
2023/03/11 06:42:58;;;;;;;3.63;1.67;;;;;;;2.95;66.37;101142.84;5000877;28;20095;-41
2023/03/11 06:45:24;;;;;;;5.05;1.70;;;;;;;3.28;66.36;101141.00;5004295;28;20034;-42
2023/03/11 06:47:49;;;;;;;11.48;1.60;;;;;;;3.51;65.22;101145.50;5000296;28;20030;-40
2023/03/11 06:50:15;;;;;;;4.68;1.55;;;;;;;3.66;62.96;101156.50;5004753;28;20451;-40
2023/03/11 06:52:41;;;;;;;7.13;1.50;;;;;;;4.31;61.58;101154.28;5000929;28;20034;-43
2023/03/11 06:55:06;;;;;;;4.70;1.52;;;;;;;5.13;59.30;101149.03;5004391;28;20033;-40
2023/03/11 06:57:32;;;;;;;4.07;1.80;;;;;;;5.63;53.87;101151.84;5004528;28;20034;-42
2023/03/11 06:59:57;;;;;;;4.90;1.60;;;;;;;6.14;55.07;101157.22;5000595;28;20029;-42
2023/03/11 07:02:23;;;;;;;6.30;1.83;;;;;;;7.59;54.54;101140.38;5004220;28;20037;-40
2023/03/11 07:04:48;;;;;;;4.47;1.92;;;;;;;7.57;50.45;101144.63;4999922;28;20046;-42
2023/03/11 07:07:14;;;;;;;6.38;2.15;;;;;;;7.74;50.50;101150.34;5004168;28;20034;-42
2023/03/11 07:09:39;;;;;;;6.85;1.83;;;;;;;7.45;49.24;101149.47;5002331;28;20099;-42
2023/03/11 07:12:04;;;;;;;5.47;1.77;;;;;;;7.56;50.83;101153.25;5007655;28;20034;-43
2023/03/11 07:14:30;;;;;;;7.68;2.10;;;;;;;7.99;48.83;101162.31;5009853;28;20030;-41
2023/03/11 07:16:55;;;;;;;3.90;1.80;;;;;;;7.94;48.93;101167.34;5007616;28;20026;-40
2023/03/11 07:19:20;;;;;;;6.63;1.98;;;;;;;8.25;46.94;101173.41;5011043;28;20041;-40
2023/03/11 07:21:46;;;;;;;8.38;2.25;;;;;;;8.23;47.06;101175.09;5006458;28;20030;-40
2023/03/11 07:24:13;;;;;;;4.82;2.00;;;;;;;8.40;46.04;101176.47;5010190;28;20037;-40
2023/03/11 07:26:38;;;;;;;6.88;2.10;;;;;;;8.10;48.16;101172.16;5006916;28;20048;-42
2023/03/11 07:29:04;;;;;;;6.07;2.00;;;;;;;7.70;49.76;101164.03;5006943;28;20041;-40
2023/03/11 07:31:32;;;;;;;11.13;2.47;;;;;;;7.20;51.23;101167.69;5006846;28;20026;-43
2023/03/11 07:34:00;;;;;;;6.68;1.98;;;;;;;6.70;51.27;101172.13;5004530;28;20061;-41
2023/03/11 07:36:27;;;;;;;6.55;2.30;;;;;;;6.48;53.53;101183.44;5010634;28;20085;-39
2023/03/11 07:39:02;;;;;;;6.95;2.40;;;;;;;6.23;54.90;101175.66;5004760;28;20544;-41
2023/03/11 07:41:29;;;;;;;8.95;3.00;;;;;;;6.05;55.44;101180.16;5005701;28;20492;-42
2023/03/11 07:43:56;;;;;;;7.88;3.55;;;;;;;6.03;56.25;101180.13;5002566;28;20045;-39
2023/03/11 07:46:23;;;;;;;9.32;3.25;;;;;;;6.08;57.97;101188.06;5004863;28;20065;-39
2023/03/11 07:48:50;;;;;;;10.45;4.10;;;;;;;6.07;55.84;101188.88;5002113;28;20030;-41
2023/03/11 07:51:21;;;;;;;7.28;3.30;;;;;;;6.16;55.61;101193.53;5006009;28;20130;-39
2023/03/11 07:53:48;;;;;;;8.95;2.63;;;;;;;6.27;55.15;101194.78;5002235;28;20046;-42
2023/03/11 07:56:15;;;;;;;6.43;2.65;;;;;;;6.38;53.80;101196.03;5006597;28;20045;-41
2023/03/11 07:58:41;;;;;;;5.88;2.60;;;;;;;6.43;53.85;101197.97;5002602;28;20550;-40
2023/03/11 08:01:34;;;;;;;7.40;2.50;;;;;;;6.50;52.68;101199.94;5005872;28;20041;-41
2023/03/11 08:04:01;;;;;;;12.02;2.65;;;;;;;6.55;52.65;101214.75;5001729;28;20026;-40
2023/03/11 08:06:30;;;;;;;8.57;2.17;;;;;;;6.67;52.27;101207.41;5007785;28;20042;-40
2023/03/11 08:08:56;;;;;;;6.38;2.30;;;;;;;6.81;51.44;101204.47;5002876;28;20030;-40
2023/03/11 08:11:22;;;;;;;6.68;2.15;;;;;;;6.87;51.65;101214.16;5006642;28;20030;-40
2023/03/11 08:13:49;;;;;;;9.50;2.67;;;;;;;7.00;51.00;101218.91;5002383;28;20043;-41
2023/03/11 08:16:16;;;;;;;7.00;2.70;;;;;;;7.09;50.28;101224.38;5005436;28;20033;-40
2023/03/11 08:18:42;;;;;;;11.48;2.70;;;;;;;7.23;50.17;101227.44;5002103;28;20033;-40
2023/03/11 08:21:10;;;;;;;7.55;2.58;;;;;;;7.27;49.83;101231.88;5005267;28;20041;-41
2023/03/11 08:23:36;;;;;;;12.07;2.92;;;;;;;7.41;48.58;101232.34;5003251;28;20038;-42
2023/03/11 08:26:06;;;;;;;10.25;2.60;;;;;;;7.58;48.15;101226.84;5001790;28;20040;-40
2023/03/11 08:28:31;;;;;;;10.05;2.85;;;;;;;7.65;47.60;101235.69;5005868;28;20134;-40
2023/03/11 08:30:56;;;;;;;12.45;3.00;;;;;;;7.68;48.02;101225.41;5001616;28;20476;-40
2023/03/11 08:33:22;;;;;;;5.97;2.42;;;;;;;7.78;47.65;101230.03;5006689;28;20034;-40
2023/03/11 08:35:47;;;;;;;8.15;2.47;;;;;;;7.81;47.55;101237.91;5002677;28;20570;-40
2023/03/11 08:38:12;;;;;;;11.57;2.38;;;;;;;7.80;47.90;101230.97;5005718;28;20094;-40
2023/03/11 08:40:38;;;;;;;7.78;2.05;;;;;;;7.86;47.07;101232.88;5002022;28;20053;-44
2023/03/11 08:43:03;;;;;;;7.43;2.03;;;;;;;7.90;47.46;101243.38;5006262;28;20036;-40
2023/03/11 08:45:28;;;;;;;5.45;1.88;;;;;;;7.87;46.65;101245.88;5005165;28;20500;-39
2023/03/11 08:47:54;;;;;;;5.80;1.70;;;;;;;7.96;46.43;101250.47;5002406;28;20064;-40
2023/03/11 08:50:19;;;;;;;9.52;1.98;;;;;;;7.99;45.86;101253.19;5006046;28;20527;-40
2023/03/11 08:52:45;;;;;;;8.38;1.70;;;;;;;8.00;44.85;101247.13;5001778;28;20034;-40
2023/03/11 08:55:13;;;;;;;5.47;1.55;;;;;;;7.97;45.27;101247.06;5004987;28;20037;-41
2023/03/11 08:57:39;;;;;;;6.05;1.70;;;;;;;8.19;46.00;101246.84;5001967;28;20034;-40
2023/03/11 09:00:06;;;;;;;9.50;1.83;;;;;;;8.29;45.91;101248.00;5005987;28;20346;-41
2023/03/11 09:02:31;;;;;;;4.30;1.40;;;;;;;8.35;45.83;101243.00;5004934;28;20040;-43
2023/03/11 09:04:57;;;;;;;4.53;1.35;;;;;;;8.42;45.90;101252.72;5000155;28;20026;-42
2023/03/11 09:07:22;;;;;;;4.80;1.73;;;;;;;8.52;45.47;101257.34;5003779;28;20069;-39
2023/03/11 09:09:47;;;;;;;4.35;1.55;;;;;;;8.73;45.34;101259.63;4999718;28;20172;-40
2023/03/11 09:12:13;;;;;;;6.35;1.20;;;;;;;8.66;45.56;101263.78;5002218;28;20026;-42
2023/03/11 09:14:42;;;;;;;2.90;1.15;;;;;;;8.77;45.25;101257.16;4999478;28;20140;-39
2023/03/11 09:17:10;;;;;;;6.28;1.50;;;;;;;8.26;44.24;101255.69;5002796;28;20488;-39
2023/03/11 09:19:36;;;;;;;4.88;1.40;;;;;;;8.44;44.58;101253.63;5002694;28;20054;-40
2023/03/11 09:22:02;;;;;;;5.63;1.75;;;;;;;8.02;44.58;101254.13;4999173;28;20072;-40
2023/03/11 09:24:28;;;;;;;8.50;1.30;;;;;;;7.97;44.63;101257.44;5003130;28;20507;-40
2023/03/11 09:26:53;;;;;;;6.88;1.30;;;;;;;8.21;44.69;101252.09;4998693;28;20038;-40
2023/03/11 09:29:19;;;;;;;4.85;1.40;;;;;;;7.91;45.08;101260.72;5003349;28;20034;-40
2023/03/11 09:31:44;;;;;;;6.82;1.27;;;;;;;8.04;44.26;101261.97;5000034;28;20077;-40
2023/03/11 09:34:11;;;;;;;3.63;0.80;;;;;;;8.40;42.89;101262.19;5003908;28;20447;-40
2023/03/11 09:36:40;;;;;;;6.88;1.10;;;;;;;8.69;41.82;101265.59;5000145;28;20044;-42
2023/03/11 09:39:05;;;;;;;3.17;0.80;;;;;;;9.18;40.79;101258.22;5003593;28;20022;-41
2023/03/11 09:41:42;;;;;;;5.05;0.90;;;;;;;9.27;40.04;101261.03;5006790;28;20040;-40
2023/03/11 09:44:23;;;;;;;2.97;0.98;;;;;;;9.62;39.46;101261.03;5002018;28;20048;-40
2023/03/11 09:47:10;;;;;;;6.95;1.65;;;;;;;9.85;40.32;101262.44;5000360;28;20042;-40
2023/03/11 09:50:05;;;;;;;5.70;0.98;;;;;;;10.00;41.12;101254.09;5003909;28;20278;-42
2023/03/11 09:52:43;;;;;;;3.75;0.90;;;;;;;9.88;41.40;101262.47;4999708;28;20096;-40
2023/03/11 09:55:38;;;;;;;6.57;1.30;;;;;;;9.77;40.74;101264.84;5004121;28;20384;-40
2023/03/11 09:58:12;;;;;;;4.97;0.90;;;;;;;9.55;40.88;101266.94;5002371;28;20038;-39
2023/03/11 10:00:38;;;;;;;5.33;1.07;;;;;;;9.66;40.82;101268.06;4999549;28;20500;-39
2023/03/11 10:03:11;;;;;;;4.45;1.40;;;;;;;9.87;40.73;101267.69;5002730;28;20771;-40
2023/03/11 10:05:37;;;;;;;9.38;1.20;;;;;;;9.61;39.60;101265.34;5003699;28;20030;-40
2023/03/11 10:08:14;;;;;;;7.50;1.15;;;;;;;9.69;42.01;101268.16;5003270;28;20041;-41
2023/03/11 10:10:52;;;;;;;4.47;1.30;;;;;;;9.83;41.63;101266.72;5002241;28;20034;-41
2023/03/11 10:13:29;;;;;;;7.05;1.30;;;;;;;10.10;41.93;101266.44;5008444;28;20037;-40
2023/03/11 10:16:09;;;;;;;4.72;1.00;;;;;;;10.56;41.61;101253.53;5002731;28;20041;-40
2023/03/11 10:18:48;;;;;;;8.93;1.65;;;;;;;10.58;41.89;101248.34;5005641;28;20519;-43
2023/03/11 10:21:26;;;;;;;4.40;1.38;;;;;;;10.37;40.02;101248.81;5002486;28;20030;-40
2023/03/11 10:24:12;;;;;;;5.18;1.15;;;;;;;10.39;40.09;101254.94;5001355;28;20042;-40
2023/03/11 10:26:44;;;;;;;3.78;1.20;;;;;;;10.33;40.38;101252.22;5001174;28;20041;-40
2023/03/11 10:29:27;;;;;;;4.05;1.20;;;;;;;10.18;40.77;101251.91;5008149;28;20029;-41
2023/03/11 10:31:55;;;;;;;5.20;1.40;;;;;;;10.33;42.37;101260.03;5008274;28;20037;-41
2023/03/11 10:34:31;;;;;;;5.32;1.23;;;;;;;10.18;42.03;101258.84;5012544;28;20033;-40
2023/03/11 10:37:13;;;;;;;5.43;1.20;;;;;;;9.45;41.85;101265.84;5001846;28;20121;-41
2023/03/11 10:39:39;;;;;;;5.30;1.20;;;;;;;9.59;42.59;101259.22;5000788;28;20484;-40
2023/03/11 10:42:12;;;;;;;6.32;1.23;;;;;;;9.63;43.24;101262.78;5004462;28;20117;-46
2023/03/11 10:44:40;;;;;;;6.47;1.60;;;;;;;9.70;44.02;101269.88;5002532;28;20030;-46
2023/03/11 10:47:22;;;;;;;4.88;1.30;;;;;;;9.63;43.58;101260.19;5003341;28;20399;-40
2023/03/11 10:49:48;;;;;;;7.63;1.42;;;;;;;9.50;43.96;101269.44;5004504;28;20057;-39
2023/03/11 10:52:13;;;;;;;4.70;1.23;;;;;;;9.54;43.94;101273.84;5009977;28;20381;-40
2023/03/11 10:54:47;;;;;;;7.13;1.20;;;;;;;9.49;43.41;101279.81;5006221;28;20034;-41
2023/03/11 10:57:23;;;;;;;2.95;1.10;;;;;;;9.46;42.55;101277.09;5009225;28;20582;-40
2023/03/11 10:59:53;;;;;;;3.13;1.05;;;;;;;9.48;43.17;101275.44;5005215;28;20034;-40
2023/03/11 11:02:48;;;;;;;3.35;1.10;;;;;;;9.64;42.39;101278.44;5007098;28;20037;-40
2023/03/11 11:05:16;;;;;;;4.22;1.05;;;;;;;9.65;41.97;101281.91;5001753;28;20033;-40
2023/03/11 11:07:46;;;;;;;7.65;1.38;;;;;;;9.64;42.35;101285.34;5005962;28;20038;-42
2023/03/11 11:10:11;;;;;;;4.63;1.30;;;;;;;9.69;42.33;101279.44;5009537;28;20037;-40
2023/03/11 11:12:49;;;;;;;4.03;1.13;;;;;;;9.31;42.12;101285.44;5000277;28;20033;-42
2023/03/11 11:15:26;;;;;;;6.68;1.30;;;;;;;9.39;42.79;101286.53;5003710;28;20045;-40
2023/03/11 11:17:55;;;;;;;4.93;1.35;;;;;;;9.88;43.47;101280.72;4999285;28;20473;-40
2023/03/11 11:20:21;;;;;;;3.30;1.00;;;;;;;9.97;43.50;101286.16;5003855;28;20357;-41
2023/03/11 11:22:56;;;;;;;4.53;1.02;;;;;;;10.08;43.27;101281.16;5000127;28;20026;-40
2023/03/11 11:25:30;;;;;;;2.47;1.05;;;;;;;9.67;42.34;101288.94;5004132;28;20161;-40
2023/03/11 11:27:57;;;;;;;;;;;;;;;10.02;42.67;101283.63;5001190;28;22441;-40
2023/03/11 11:30:23;;;;;;;4.60;1.27;;;;;;;10.00;42.00;101282.75;5004136;28;19935;-41
2023/03/11 11:32:52;;;;;;;6.63;1.48;;;;;;;9.74;40.11;101280.41;5001675;28;20546;-41